Terminal Aerodrome Forecast
Issued by NWS Twin Cities, MN

Home | Current Version | Previous Version | Text Only | Print | Product List | Glossary On
Versions: 1 2 3 4 5 6 7 8 9 10 11 12 13 14 15 16 17 18 19 20 21
000
FTUS43 KMPX 241544 AAA
TAFEAU
TAF AMD
KEAU 241544Z 2416/2512 13007KT P6SM OVC070
     FM241730 12008KT P6SM -SHRA OVC050
     FM242200 10006KT 4SM -RA BR OVC015
     FM250400 08004KT 3SM -RA BR OVC008
     FM251000 VRB03KT 2SM -DZ BR OVC005=

USA.gov is the U.S. government's official web portal to all federal, state and local government web resources and services.